Terminal Aerodrome Forecast
Issued by NWS Wilmington, NC

Home | Current Version | Previous Version | Text Only | Print | Product List | Glossary On
Versions: 1 2 3 4 5 6 7 8 9 10 11 12 13 14 15 16 17 18 19 20 21 22 23 24 25 26 27 28 29
776
FTUS42 KILM 220049 AAB
TAFFLO
TAF AMD
KFLO 220049Z 2201/2224 17011G29KT P6SM -RA SCT005 BKN050
     FM220200 21006KT 3SM BR OVC005
     FM221200 18007KT 1SM -RA BR OVC003
     FM221400 21011G18KT 4SM -DZ BR OVC009
     FM221800 18008KT P6SM VCSH BKN025 OVC050=

USA.gov is the U.S. government's official web portal to all federal, state and local government web resources and services.